KEMP/EMP METAR and TAF weather

Enter ICAO airport designator
Station Type Date Time Source
KEMP METAR 2021/09/25 02:53 UTC NOAA

KEMP 250253Z AUTO 36008G16KT 10SM CLR 19/11 A3011 RMK AO2 SLP187 T01940111 53022


Station Type Date Time Source
KEMP Decoded METAR 2021/09/25 02:53 UTC NOAA

EMPORIA MUNICIPAL AIRPORT, KS, United States (KEMP) 38-20N 96-12W 367M
Sep 24, 2021 - 10:53 PM EDT / 2021.09.25 0253 UTC
Wind: from the N (360 degrees) at 9 MPH (8 KT) gusting to 18 MPH (16 KT):0
Visibility: 10 mile(s):0
Sky conditions: clear
Temperature: 66.9 F (19.4 C)
Dew Point: 52.0 F (11.1 C)
Relative Humidity: 58%
Pressure (altimeter): 30.11 in. Hg (1019 hPa)
Pressure tendency: 0.06 inches (2.2 hPa) higher than three hours ago
ob: KEMP 250253Z AUTO 36008G16KT 10SM CLR 19/11 A3011 RMK AO2 SLP187 T01940111 53022
cycle: 3

Station Type Date Time Source
KEMP TAF UTC NOAA

Error!

Example: see airport list